JBU771 KBOS-MMUN
Flight info
| Callsign | JBU771 |
|---|---|
| Flight time | N/A |
| Altitude | 32000 |
| Route | SSOXS7 SSOXS Q167 RIFLE DCT HEADI Q97 KALDA Q131 WAALT Y289 BAHAA DCT SAXXN Y262 LULLS Y196 CANOA UB879 NOSAT NOSAT1B |
| Aircraft | A321/M-SDE3FGHIRWY/LB1 |
Departure
| Time | N/A |
|---|---|
| Airport | Boston Logan International Airport (KBOS) |
Arrival
| Time | 2026-05-05 20:26 |
|---|---|
| Airport | Cancún International Airport (MMUN) |
| Time | Latitude | Longitude | Altitude | Speed | Heading |
|---|---|---|---|---|---|
| 2026-05-05 17:36 | 37.75091 | -75.67853 | 34052 ft | 461 kts | 208° |
| 2026-05-05 17:36 | 37.69230 | -75.71170 | 34049 ft | 462 kts | 208° |
| 2026-05-05 17:37 | 37.63364 | -75.74489 | 34051 ft | 462 kts | 208° |
| 2026-05-05 17:37 | 37.57498 | -75.77815 | 34049 ft | 462 kts | 208° |
| 2026-05-05 17:38 | 37.51633 | -75.81138 | 34053 ft | 462 kts | 208° |
| 2026-05-05 17:38 | 37.45758 | -75.84451 | 34052 ft | 463 kts | 208° |
| 2026-05-05 17:39 | 37.39874 | -75.87769 | 34054 ft | 463 kts | 208° |
| 2026-05-05 17:39 | 37.33985 | -75.91081 | 34057 ft | 464 kts | 208° |
| 2026-05-05 17:40 | 37.28096 | -75.94389 | 34054 ft | 464 kts | 208° |
| 2026-05-05 17:40 | 37.22197 | -75.97700 | 34065 ft | 465 kts | 208° |
| 2026-05-05 17:41 | 37.16289 | -76.01009 | 34066 ft | 465 kts | 208° |
| 2026-05-05 17:41 | 37.10439 | -76.04334 | 34072 ft | 464 kts | 211° |
| 2026-05-05 17:42 | 37.04756 | -76.08152 | 34079 ft | 462 kts | 214° |
| 2026-05-05 17:42 | 36.99192 | -76.12193 | 34080 ft | 463 kts | 214° |
| 2026-05-05 17:43 | 36.93576 | -76.16171 | 34077 ft | 464 kts | 213° |
| 2026-05-05 17:43 | 36.87915 | -76.20052 | 34078 ft | 464 kts | 213° |
| 2026-05-05 17:44 | 36.83202 | -76.23266 | 34081 ft | 464 kts | 213° |
| 2026-05-05 17:44 | 36.77534 | -76.27138 | 34080 ft | 464 kts | 213° |
| 2026-05-05 17:45 | 36.71870 | -76.31014 | 34083 ft | 464 kts | 213° |
| 2026-05-05 17:45 | 36.66202 | -76.34887 | 34080 ft | 465 kts | 213° |
| 2026-05-05 17:46 | 36.60531 | -76.38763 | 34078 ft | 465 kts | 213° |
| 2026-05-05 17:46 | 36.54849 | -76.42639 | 34079 ft | 466 kts | 213° |
| 2026-05-05 17:47 | 36.49155 | -76.46502 | 34080 ft | 466 kts | 213° |
| 2026-05-05 17:47 | 36.43458 | -76.50366 | 34089 ft | 467 kts | 213° |
| 2026-05-05 17:48 | 36.37753 | -76.54235 | 34092 ft | 467 kts | 213° |
| 2026-05-05 17:48 | 36.32043 | -76.58097 | 34099 ft | 468 kts | 213° |
| 2026-05-05 17:49 | 36.26320 | -76.61952 | 34118 ft | 468 kts | 213° |
| 2026-05-05 17:49 | 36.20630 | -76.65791 | 34122 ft | 468 kts | 213° |
| 2026-05-05 17:50 | 36.14905 | -76.69649 | 34119 ft | 469 kts | 213° |
| 2026-05-05 17:50 | 36.09177 | -76.73494 | 34118 ft | 469 kts | 213° |
| 2026-05-05 17:51 | 36.03436 | -76.77339 | 34115 ft | 469 kts | 213° |
| 2026-05-05 17:51 | 35.97694 | -76.81191 | 34109 ft | 469 kts | 213° |
| 2026-05-05 17:52 | 35.91954 | -76.85026 | 34111 ft | 469 kts | 213° |
| 2026-05-05 17:52 | 35.86161 | -76.88763 | 34105 ft | 471 kts | 212° |
| 2026-05-05 17:53 | 35.80281 | -76.92343 | 34101 ft | 471 kts | 211° |
| 2026-05-05 17:53 | 35.74387 | -76.95903 | 34106 ft | 472 kts | 211° |
| 2026-05-05 17:54 | 35.68506 | -76.99498 | 34112 ft | 472 kts | 212° |
| 2026-05-05 17:54 | 35.62629 | -77.03116 | 34115 ft | 473 kts | 212° |
| 2026-05-05 17:55 | 35.56739 | -77.06723 | 34114 ft | 473 kts | 212° |
| 2026-05-05 17:55 | 35.50836 | -77.10324 | 34121 ft | 474 kts | 212° |
| 2026-05-05 17:56 | 35.44928 | -77.13937 | 34111 ft | 475 kts | 212° |
| 2026-05-05 17:56 | 35.39009 | -77.17549 | 34110 ft | 476 kts | 212° |
| 2026-05-05 17:57 | 35.33075 | -77.21158 | 34111 ft | 477 kts | 212° |
| 2026-05-05 17:57 | 35.27129 | -77.24774 | 34119 ft | 477 kts | 212° |
| 2026-05-05 17:58 | 35.21174 | -77.28392 | 34125 ft | 478 kts | 212° |
| 2026-05-05 17:58 | 35.15210 | -77.32001 | 34129 ft | 479 kts | 212° |
| 2026-05-05 17:59 | 35.09226 | -77.35611 | 34130 ft | 480 kts | 212° |
| 2026-05-05 17:59 | 35.03237 | -77.39222 | 34131 ft | 481 kts | 212° |
| 2026-05-05 18:00 | 34.97228 | -77.42840 | 34131 ft | 482 kts | 212° |
| 2026-05-05 18:00 | 34.91249 | -77.46427 | 34136 ft | 482 kts | 213° |
| 2026-05-05 18:01 | 34.85221 | -77.50048 | 34135 ft | 483 kts | 213° |
| 2026-05-05 18:01 | 34.79180 | -77.53676 | 34130 ft | 484 kts | 213° |
| 2026-05-05 18:02 | 34.73127 | -77.57303 | 34128 ft | 485 kts | 213° |
| 2026-05-05 18:02 | 34.67062 | -77.60928 | 34131 ft | 486 kts | 213° |
| 2026-05-05 18:03 | 34.60995 | -77.64545 | 34130 ft | 486 kts | 213° |
| 2026-05-05 18:03 | 34.54764 | -77.67729 | 34131 ft | 497 kts | 202° |
| 2026-05-05 18:04 | 34.47956 | -77.69538 | 34128 ft | 502 kts | 198° |
| 2026-05-05 18:04 | 34.41105 | -77.71263 | 34130 ft | 502 kts | 198° |
| 2026-05-05 18:05 | 34.34258 | -77.73000 | 34132 ft | 503 kts | 198° |
| 2026-05-05 18:05 | 34.27404 | -77.74754 | 34135 ft | 504 kts | 198° |
| 2026-05-05 18:06 | 34.20574 | -77.76493 | 34135 ft | 504 kts | 198° |
| 2026-05-05 18:06 | 34.13692 | -77.78225 | 34133 ft | 505 kts | 198° |
| 2026-05-05 18:07 | 34.06817 | -77.79957 | 34132 ft | 505 kts | 198° |
| 2026-05-05 18:07 | 33.99925 | -77.81701 | 34135 ft | 506 kts | 198° |
| 2026-05-05 18:08 | 33.93030 | -77.83437 | 34140 ft | 507 kts | 199° |
| 2026-05-05 18:08 | 33.86125 | -77.85174 | 34140 ft | 507 kts | 199° |
| 2026-05-05 18:09 | 33.79214 | -77.86920 | 34143 ft | 507 kts | 199° |
| 2026-05-05 18:09 | 33.72390 | -77.88990 | 34143 ft | 504 kts | 204° |
| 2026-05-05 18:10 | 33.65682 | -77.91400 | 34144 ft | 503 kts | 205° |
| 2026-05-05 18:10 | 33.58972 | -77.93827 | 34141 ft | 504 kts | 204° |
| 2026-05-05 18:11 | 33.52214 | -77.96137 | 34143 ft | 506 kts | 203° |
| 2026-05-05 18:11 | 33.45430 | -77.98387 | 34144 ft | 506 kts | 203° |
| 2026-05-05 18:12 | 33.38645 | -78.00650 | 34143 ft | 506 kts | 204° |
| 2026-05-05 18:12 | 33.31863 | -78.02941 | 34143 ft | 506 kts | 204° |
| 2026-05-05 18:13 | 33.25125 | -78.05221 | 34150 ft | 507 kts | 204° |
| 2026-05-05 18:13 | 33.18330 | -78.07502 | 34151 ft | 507 kts | 204° |
| 2026-05-05 18:14 | 33.11536 | -78.09780 | 34158 ft | 507 kts | 204° |
| 2026-05-05 18:14 | 33.04736 | -78.12052 | 34148 ft | 508 kts | 204° |
| 2026-05-05 18:15 | 32.97930 | -78.14319 | 34148 ft | 507 kts | 204° |
| 2026-05-05 18:15 | 32.91125 | -78.16588 | 34144 ft | 508 kts | 204° |
| 2026-05-05 18:16 | 32.84318 | -78.18861 | 34145 ft | 508 kts | 204° |
| 2026-05-05 18:16 | 32.77516 | -78.21131 | 34146 ft | 508 kts | 204° |
| 2026-05-05 18:17 | 32.70698 | -78.23395 | 34152 ft | 509 kts | 204° |
| 2026-05-05 18:17 | 32.63882 | -78.25660 | 34150 ft | 509 kts | 204° |
| 2026-05-05 18:18 | 32.57061 | -78.27910 | 34150 ft | 509 kts | 204° |
| 2026-05-05 18:18 | 32.50279 | -78.30150 | 34148 ft | 509 kts | 204° |
| 2026-05-05 18:19 | 32.43449 | -78.32406 | 34151 ft | 509 kts | 204° |
| 2026-05-05 18:19 | 32.36623 | -78.34656 | 34156 ft | 509 kts | 204° |
| 2026-05-05 18:20 | 32.29792 | -78.36899 | 34154 ft | 509 kts | 204° |
| 2026-05-05 18:20 | 32.22964 | -78.39138 | 34157 ft | 509 kts | 204° |
| 2026-05-05 18:21 | 32.16134 | -78.41378 | 34158 ft | 509 kts | 204° |
| 2026-05-05 18:21 | 32.09301 | -78.43612 | 34153 ft | 509 kts | 204° |
| 2026-05-05 18:22 | 32.02521 | -78.45822 | 34155 ft | 509 kts | 204° |
| 2026-05-05 18:22 | 31.95705 | -78.48052 | 34160 ft | 508 kts | 204° |
| 2026-05-05 18:23 | 31.88885 | -78.50271 | 34155 ft | 508 kts | 204° |
| 2026-05-05 18:23 | 31.82072 | -78.52493 | 34160 ft | 508 kts | 204° |
| 2026-05-05 18:24 | 31.75256 | -78.54706 | 34157 ft | 508 kts | 204° |
| 2026-05-05 18:24 | 31.68446 | -78.56909 | 34157 ft | 507 kts | 204° |
| 2026-05-05 18:25 | 31.61641 | -78.59113 | 34156 ft | 507 kts | 204° |
| 2026-05-05 18:25 | 31.54837 | -78.61318 | 34159 ft | 507 kts | 204° |
| 2026-05-05 18:26 | 31.48065 | -78.63573 | 34155 ft | 505 kts | 205° |
| 2026-05-05 18:26 | 31.41338 | -78.65906 | 34152 ft | 504 kts | 206° |
| 2026-05-05 18:27 | 31.34618 | -78.68242 | 34159 ft | 504 kts | 206° |
| 2026-05-05 18:27 | 31.27895 | -78.70549 | 34157 ft | 503 kts | 205° |
| 2026-05-05 18:28 | 31.17848 | -78.73957 | 34149 ft | 503 kts | 205° |
| 2026-05-05 18:28 | 31.11136 | -78.76235 | 34149 ft | 502 kts | 206° |
| 2026-05-05 18:29 | 31.04424 | -78.78519 | 34149 ft | 502 kts | 206° |
| 2026-05-05 18:29 | 30.97677 | -78.80811 | 34146 ft | 502 kts | 206° |
| 2026-05-05 18:30 | 30.91019 | -78.83067 | 34141 ft | 502 kts | 206° |
| 2026-05-05 18:30 | 30.85401 | -78.84968 | 34142 ft | 501 kts | 206° |
| 2026-05-05 18:31 | 30.78698 | -78.87232 | 34141 ft | 501 kts | 206° |
| 2026-05-05 18:31 | 30.72043 | -78.89471 | 34137 ft | 501 kts | 206° |
| 2026-05-05 18:32 | 30.65344 | -78.91729 | 34130 ft | 501 kts | 206° |
| 2026-05-05 18:32 | 30.58644 | -78.93991 | 34129 ft | 501 kts | 206° |
| 2026-05-05 18:33 | 30.51941 | -78.96239 | 34130 ft | 502 kts | 206° |
| 2026-05-05 18:33 | 30.45232 | -78.98491 | 34127 ft | 502 kts | 206° |
| 2026-05-05 18:34 | 30.38465 | -79.00603 | 34141 ft | 506 kts | 202° |
| 2026-05-05 18:34 | 30.31530 | -79.02277 | 34124 ft | 510 kts | 200° |
| 2026-05-05 18:35 | 30.24554 | -79.03811 | 34119 ft | 510 kts | 200° |
| 2026-05-05 18:35 | 30.17610 | -79.05448 | 34117 ft | 509 kts | 201° |
| 2026-05-05 18:36 | 30.10695 | -79.07172 | 34118 ft | 508 kts | 202° |
| 2026-05-05 18:36 | 30.03771 | -79.08895 | 34119 ft | 509 kts | 201° |
| 2026-05-05 18:37 | 29.96835 | -79.10580 | 34113 ft | 509 kts | 201° |
| 2026-05-05 18:37 | 29.89901 | -79.12252 | 34115 ft | 509 kts | 201° |
| 2026-05-05 18:38 | 29.82959 | -79.13927 | 34116 ft | 509 kts | 201° |
| 2026-05-05 18:38 | 29.76020 | -79.15594 | 34119 ft | 509 kts | 201° |
| 2026-05-05 18:39 | 29.69090 | -79.17276 | 34122 ft | 509 kts | 201° |
| 2026-05-05 18:39 | 29.62162 | -79.18955 | 34123 ft | 509 kts | 201° |
| 2026-05-05 18:40 | 29.55237 | -79.20621 | 34124 ft | 508 kts | 201° |
| 2026-05-05 18:40 | 29.48320 | -79.22281 | 34122 ft | 508 kts | 201° |
| 2026-05-05 18:41 | 29.41408 | -79.23941 | 34123 ft | 507 kts | 201° |
| 2026-05-05 18:41 | 29.34501 | -79.25605 | 34132 ft | 507 kts | 201° |
| 2026-05-05 18:42 | 29.27599 | -79.27257 | 34129 ft | 507 kts | 201° |
| 2026-05-05 18:42 | 29.20696 | -79.28902 | 34121 ft | 506 kts | 201° |
| 2026-05-05 18:43 | 29.13800 | -79.30551 | 34119 ft | 506 kts | 201° |
| 2026-05-05 18:43 | 29.06953 | -79.32184 | 34120 ft | 505 kts | 201° |
| 2026-05-05 18:44 | 29.00067 | -79.33830 | 34122 ft | 505 kts | 201° |
| 2026-05-05 18:44 | 28.93190 | -79.35467 | 34123 ft | 504 kts | 201° |
| 2026-05-05 18:45 | 28.86325 | -79.37090 | 34117 ft | 503 kts | 201° |
| 2026-05-05 18:45 | 28.79470 | -79.38716 | 34111 ft | 503 kts | 201° |
| 2026-05-05 18:46 | 28.72621 | -79.40340 | 34111 ft | 502 kts | 201° |
| 2026-05-05 18:46 | 28.65781 | -79.41959 | 34107 ft | 502 kts | 201° |
| 2026-05-05 18:47 | 28.58951 | -79.43577 | 34112 ft | 501 kts | 201° |
| 2026-05-05 18:47 | 28.52134 | -79.45191 | 34103 ft | 500 kts | 201° |
| 2026-05-05 18:48 | 28.45319 | -79.46799 | 34110 ft | 500 kts | 201° |
| 2026-05-05 18:48 | 28.38504 | -79.48399 | 34110 ft | 500 kts | 201° |
| 2026-05-05 18:49 | 28.31705 | -79.49996 | 34105 ft | 499 kts | 201° |
| 2026-05-05 18:49 | 28.24898 | -79.51592 | 34100 ft | 499 kts | 200° |
| 2026-05-05 18:50 | 28.18144 | -79.53175 | 34099 ft | 499 kts | 200° |
| 2026-05-05 18:50 | 28.11346 | -79.54775 | 34098 ft | 499 kts | 200° |
| 2026-05-05 18:51 | 28.04545 | -79.56370 | 34098 ft | 499 kts | 200° |
| 2026-05-05 18:51 | 27.97743 | -79.57948 | 34099 ft | 499 kts | 200° |
| 2026-05-05 18:52 | 27.90944 | -79.59536 | 34102 ft | 499 kts | 200° |
| 2026-05-05 18:52 | 27.84149 | -79.61127 | 34102 ft | 499 kts | 200° |
| 2026-05-05 18:53 | 27.77353 | -79.62705 | 34096 ft | 498 kts | 200° |
| 2026-05-05 18:53 | 27.70562 | -79.64281 | 34094 ft | 498 kts | 200° |
| 2026-05-05 18:54 | 27.63772 | -79.65854 | 34091 ft | 498 kts | 200° |
| 2026-05-05 18:54 | 27.56986 | -79.67428 | 34090 ft | 498 kts | 200° |
| 2026-05-05 18:55 | 27.50198 | -79.68994 | 34087 ft | 498 kts | 200° |
| 2026-05-05 18:55 | 27.43397 | -79.70559 | 34091 ft | 498 kts | 200° |
| 2026-05-05 18:56 | 27.36593 | -79.72131 | 34089 ft | 498 kts | 199° |
| 2026-05-05 18:56 | 27.29797 | -79.73698 | 34085 ft | 498 kts | 199° |
| 2026-05-05 18:57 | 27.23041 | -79.75249 | 34080 ft | 499 kts | 199° |
| 2026-05-05 18:57 | 27.16241 | -79.76811 | 34078 ft | 499 kts | 199° |
| 2026-05-05 18:58 | 27.09439 | -79.78376 | 34076 ft | 499 kts | 199° |
| 2026-05-05 18:58 | 27.02634 | -79.79944 | 34073 ft | 499 kts | 199° |
| 2026-05-05 18:59 | 26.95839 | -79.81505 | 34072 ft | 499 kts | 199° |
| 2026-05-05 18:59 | 26.89035 | -79.83063 | 34068 ft | 499 kts | 199° |
| 2026-05-05 19:00 | 26.82237 | -79.84613 | 34066 ft | 499 kts | 199° |
| 2026-05-05 19:00 | 26.75436 | -79.86169 | 34062 ft | 499 kts | 199° |
| 2026-05-05 19:01 | 26.68624 | -79.87721 | 34067 ft | 499 kts | 199° |
| 2026-05-05 19:01 | 26.61814 | -79.89268 | 34056 ft | 499 kts | 199° |
| 2026-05-05 19:02 | 26.55004 | -79.90819 | 34057 ft | 500 kts | 199° |
| 2026-05-05 19:02 | 26.48188 | -79.92371 | 34053 ft | 500 kts | 199° |
| 2026-05-05 19:03 | 26.41371 | -79.93913 | 34066 ft | 500 kts | 199° |
| 2026-05-05 19:03 | 26.34549 | -79.95460 | 34068 ft | 500 kts | 199° |
| 2026-05-05 19:04 | 26.27738 | -79.97009 | 34058 ft | 500 kts | 198° |
| 2026-05-05 19:04 | 26.20920 | -79.98557 | 34059 ft | 500 kts | 198° |
| 2026-05-05 19:05 | 26.14109 | -80.00094 | 34056 ft | 500 kts | 198° |
| 2026-05-05 19:05 | 26.07339 | -80.01619 | 34040 ft | 500 kts | 198° |
| 2026-05-05 19:06 | 26.00520 | -80.03146 | 34041 ft | 499 kts | 198° |
| 2026-05-05 19:06 | 25.93712 | -80.04673 | 34042 ft | 500 kts | 198° |
| 2026-05-05 19:07 | 25.88042 | -80.05950 | 34044 ft | 500 kts | 198° |
| 2026-05-05 19:07 | 25.80222 | -80.08139 | 34043 ft | 488 kts | 210° |
| 2026-05-05 19:08 | 25.77217 | -80.09802 | 34045 ft | 477 kts | 220° |
| 2026-05-05 19:08 | 25.74543 | -80.11907 | 34037 ft | 467 kts | 229° |
| 2026-05-05 19:08 | 25.72230 | -80.14381 | 34146 ft | 458 kts | 237° |
| 2026-05-05 19:08 | 25.70297 | -80.17148 | 34380 ft | 449 kts | 245° |
| 2026-05-05 19:09 | 25.68600 | -80.20042 | 34622 ft | 448 kts | 245° |
| 2026-05-05 19:09 | 25.66900 | -80.22935 | 34874 ft | 447 kts | 245° |
| 2026-05-05 19:09 | 25.65201 | -80.25819 | 35121 ft | 447 kts | 245° |
| 2026-05-05 19:09 | 25.63502 | -80.28696 | 35372 ft | 446 kts | 245° |
| 2026-05-05 19:10 | 25.61803 | -80.31568 | 35629 ft | 445 kts | 245° |
| 2026-05-05 19:10 | 25.60111 | -80.34436 | 35884 ft | 444 kts | 245° |
| 2026-05-05 19:10 | 25.58424 | -80.37300 | 36001 ft | 444 kts | 245° |
| 2026-05-05 19:10 | 25.56733 | -80.40165 | 36027 ft | 444 kts | 245° |
| 2026-05-05 19:11 | 25.53371 | -80.45848 | 36027 ft | 444 kts | 245° |
| 2026-05-05 19:11 | 25.49995 | -80.51571 | 36024 ft | 444 kts | 245° |
| 2026-05-05 19:12 | 25.46613 | -80.57290 | 36023 ft | 444 kts | 245° |
| 2026-05-05 19:12 | 25.43220 | -80.63005 | 36023 ft | 444 kts | 245° |
| 2026-05-05 19:13 | 25.39821 | -80.68722 | 36023 ft | 445 kts | 245° |
| 2026-05-05 19:13 | 25.36418 | -80.74438 | 36025 ft | 445 kts | 245° |
| 2026-05-05 19:14 | 25.33008 | -80.80154 | 36031 ft | 446 kts | 244° |
| 2026-05-05 19:14 | 25.30172 | -80.84907 | 36034 ft | 446 kts | 244° |
| 2026-05-05 19:15 | 25.26755 | -80.90626 | 36037 ft | 446 kts | 244° |
| 2026-05-05 19:15 | 25.23345 | -80.96351 | 36042 ft | 446 kts | 244° |
| 2026-05-05 19:16 | 25.19938 | -81.02080 | 36048 ft | 446 kts | 244° |
| 2026-05-05 19:16 | 25.16516 | -81.07797 | 36050 ft | 446 kts | 244° |
| 2026-05-05 19:17 | 25.13086 | -81.13510 | 36056 ft | 446 kts | 244° |
| 2026-05-05 19:17 | 25.09658 | -81.19219 | 36056 ft | 446 kts | 244° |
| 2026-05-05 19:18 | 25.06229 | -81.24932 | 36054 ft | 446 kts | 244° |
| 2026-05-05 19:18 | 25.02798 | -81.30636 | 36055 ft | 446 kts | 244° |
| 2026-05-05 19:19 | 24.99363 | -81.36339 | 36054 ft | 446 kts | 244° |
| 2026-05-05 19:19 | 24.95925 | -81.42033 | 36057 ft | 446 kts | 244° |
| 2026-05-05 19:20 | 24.92485 | -81.47728 | 36057 ft | 447 kts | 244° |
| 2026-05-05 19:20 | 24.88690 | -81.53196 | 36052 ft | 458 kts | 231° |
| 2026-05-05 19:21 | 24.84120 | -81.58032 | 36053 ft | 459 kts | 231° |
| 2026-05-05 19:21 | 24.79482 | -81.62946 | 36054 ft | 460 kts | 231° |
| 2026-05-05 19:22 | 24.74907 | -81.67802 | 36055 ft | 460 kts | 231° |
| 2026-05-05 19:22 | 24.70291 | -81.72688 | 36057 ft | 460 kts | 231° |
| 2026-05-05 19:23 | 24.65677 | -81.77562 | 36064 ft | 460 kts | 231° |
| 2026-05-05 19:23 | 24.61053 | -81.82434 | 36062 ft | 460 kts | 231° |
| 2026-05-05 19:24 | 24.56434 | -81.87301 | 36062 ft | 460 kts | 231° |
| 2026-05-05 19:24 | 24.51806 | -81.92169 | 36063 ft | 461 kts | 231° |
| 2026-05-05 19:25 | 24.47677 | -81.97414 | 36057 ft | 447 kts | 245° |
| 2026-05-05 19:25 | 24.44899 | -82.03419 | 36054 ft | 440 kts | 251° |
| 2026-05-05 19:26 | 24.42245 | -82.09481 | 36052 ft | 441 kts | 251° |
| 2026-05-05 19:26 | 24.39580 | -82.15544 | 36055 ft | 441 kts | 251° |
| 2026-05-05 19:27 | 24.36918 | -82.21612 | 36055 ft | 441 kts | 251° |
| 2026-05-05 19:27 | 24.34259 | -82.27677 | 36056 ft | 442 kts | 251° |
| 2026-05-05 19:28 | 24.31602 | -82.33712 | 36057 ft | 442 kts | 251° |
| 2026-05-05 19:28 | 24.28928 | -82.39784 | 36056 ft | 442 kts | 251° |
| 2026-05-05 19:29 | 24.26255 | -82.45859 | 36062 ft | 443 kts | 251° |
| 2026-05-05 19:29 | 24.23575 | -82.51935 | 36058 ft | 443 kts | 250° |
| 2026-05-05 19:30 | 24.20889 | -82.58017 | 36060 ft | 443 kts | 250° |
| 2026-05-05 19:30 | 24.18199 | -82.64091 | 36058 ft | 444 kts | 250° |
| 2026-05-05 19:31 | 24.15495 | -82.70175 | 36063 ft | 444 kts | 250° |
| 2026-05-05 19:31 | 24.12792 | -82.76252 | 36062 ft | 444 kts | 250° |
| 2026-05-05 19:32 | 24.10091 | -82.82334 | 36062 ft | 445 kts | 250° |
| 2026-05-05 19:32 | 24.07385 | -82.88426 | 36062 ft | 445 kts | 250° |
| 2026-05-05 19:33 | 24.04678 | -82.94509 | 36056 ft | 445 kts | 250° |
| 2026-05-05 19:33 | 24.01962 | -83.00593 | 36059 ft | 445 kts | 250° |
| 2026-05-05 19:34 | 23.98958 | -83.06540 | 36061 ft | 453 kts | 240° |
| 2026-05-05 19:35 | 23.93310 | -83.14848 | 36051 ft | 454 kts | 239° |
| 2026-05-05 19:35 | 23.89564 | -83.20348 | 36049 ft | 454 kts | 239° |
| 2026-05-05 19:36 | 23.85792 | -83.25887 | 36052 ft | 454 kts | 239° |
| 2026-05-05 19:36 | 23.82016 | -83.31424 | 36053 ft | 454 kts | 239° |
| 2026-05-05 19:37 | 23.78233 | -83.36957 | 36048 ft | 454 kts | 239° |
| 2026-05-05 19:37 | 23.74457 | -83.42489 | 36049 ft | 454 kts | 239° |
| 2026-05-05 19:38 | 23.70678 | -83.48020 | 36051 ft | 455 kts | 239° |
| 2026-05-05 19:38 | 23.66893 | -83.53553 | 36051 ft | 455 kts | 239° |
| 2026-05-05 19:39 | 23.63102 | -83.59083 | 36048 ft | 455 kts | 239° |
| 2026-05-05 19:39 | 23.59309 | -83.64610 | 36047 ft | 455 kts | 239° |
| 2026-05-05 19:40 | 23.55508 | -83.70131 | 36044 ft | 455 kts | 239° |
| 2026-05-05 19:40 | 23.51730 | -83.75616 | 36048 ft | 455 kts | 239° |
| 2026-05-05 19:41 | 23.47929 | -83.81141 | 36048 ft | 455 kts | 239° |
| 2026-05-05 19:41 | 23.44122 | -83.86660 | 36044 ft | 456 kts | 239° |
| 2026-05-05 19:42 | 23.40317 | -83.92179 | 36043 ft | 456 kts | 239° |
| 2026-05-05 19:42 | 23.36504 | -83.97697 | 36045 ft | 456 kts | 238° |
| 2026-05-05 19:43 | 23.32691 | -84.03209 | 36043 ft | 456 kts | 238° |
| 2026-05-05 19:43 | 23.28877 | -84.08724 | 36041 ft | 456 kts | 238° |
| 2026-05-05 19:44 | 23.25054 | -84.14235 | 36035 ft | 456 kts | 238° |
| 2026-05-05 19:44 | 23.21226 | -84.19745 | 36038 ft | 456 kts | 238° |
| 2026-05-05 19:45 | 23.17401 | -84.25251 | 36036 ft | 456 kts | 238° |
| 2026-05-05 19:45 | 23.13568 | -84.30763 | 36039 ft | 457 kts | 238° |
| 2026-05-05 19:46 | 23.09732 | -84.36267 | 36042 ft | 457 kts | 238° |
| 2026-05-05 19:46 | 23.05895 | -84.41775 | 36035 ft | 457 kts | 238° |
| 2026-05-05 19:47 | 23.02054 | -84.47281 | 36035 ft | 457 kts | 238° |
| 2026-05-05 19:47 | 22.98209 | -84.52780 | 36032 ft | 457 kts | 238° |
| 2026-05-05 19:48 | 22.94389 | -84.58249 | 36033 ft | 457 kts | 238° |
| 2026-05-05 19:48 | 22.90545 | -84.63748 | 36027 ft | 458 kts | 238° |
| 2026-05-05 19:49 | 22.86686 | -84.69248 | 36021 ft | 458 kts | 238° |
| 2026-05-05 19:49 | 22.82822 | -84.74753 | 36018 ft | 459 kts | 238° |
| 2026-05-05 19:50 | 22.78956 | -84.80270 | 36023 ft | 459 kts | 238° |
| 2026-05-05 19:50 | 22.75088 | -84.85776 | 36025 ft | 459 kts | 238° |
| 2026-05-05 19:51 | 22.71211 | -84.91281 | 36025 ft | 460 kts | 237° |
| 2026-05-05 19:51 | 22.67327 | -84.96789 | 36025 ft | 460 kts | 237° |
| 2026-05-05 19:52 | 22.63439 | -85.02295 | 36024 ft | 460 kts | 237° |
| 2026-05-05 19:52 | 22.61495 | -85.05044 | 35912 ft | 459 kts | 237° |
| 2026-05-05 19:52 | 22.59554 | -85.07794 | 35677 ft | 460 kts | 237° |
| 2026-05-05 19:52 | 22.57624 | -85.10554 | 35382 ft | 461 kts | 238° |
| 2026-05-05 19:53 | 22.55702 | -85.13332 | 34985 ft | 462 kts | 238° |
| 2026-05-05 19:53 | 22.53772 | -85.16124 | 34522 ft | 463 kts | 238° |
| 2026-05-05 19:53 | 22.51840 | -85.18917 | 34068 ft | 464 kts | 237° |
| 2026-05-05 19:53 | 22.49897 | -85.21717 | 33557 ft | 466 kts | 237° |
| 2026-05-05 19:54 | 22.47944 | -85.24518 | 33040 ft | 467 kts | 237° |
| 2026-05-05 19:54 | 22.45983 | -85.27324 | 32541 ft | 468 kts | 237° |
| 2026-05-05 19:54 | 22.44016 | -85.30134 | 32041 ft | 469 kts | 237° |
| 2026-05-05 19:54 | 22.42044 | -85.32947 | 31561 ft | 470 kts | 237° |
| 2026-05-05 19:55 | 22.40072 | -85.35768 | 31087 ft | 471 kts | 237° |
| 2026-05-05 19:55 | 22.38128 | -85.38556 | 30623 ft | 471 kts | 236° |
| 2026-05-05 19:55 | 22.36150 | -85.41389 | 30162 ft | 472 kts | 236° |
| 2026-05-05 19:55 | 22.34167 | -85.44217 | 29645 ft | 472 kts | 236° |
| 2026-05-05 19:56 | 22.32195 | -85.47027 | 29119 ft | 468 kts | 236° |
| 2026-05-05 19:56 | 22.30235 | -85.49825 | 28592 ft | 465 kts | 236° |
| 2026-05-05 19:56 | 22.28290 | -85.52600 | 28089 ft | 461 kts | 236° |
| 2026-05-05 19:56 | 22.26358 | -85.55353 | 27585 ft | 458 kts | 236° |
| 2026-05-05 19:57 | 22.24444 | -85.58079 | 27096 ft | 454 kts | 236° |
| 2026-05-05 19:57 | 22.23182 | -85.59875 | 26774 ft | 452 kts | 236° |
| 2026-05-05 19:57 | 22.20658 | -85.63478 | 26143 ft | 448 kts | 236° |
| 2026-05-05 19:57 | 22.18783 | -85.66154 | 25679 ft | 445 kts | 236° |
| 2026-05-05 19:58 | 22.16931 | -85.68805 | 25208 ft | 442 kts | 236° |
| 2026-05-05 19:58 | 22.15087 | -85.71445 | 24758 ft | 439 kts | 236° |
| 2026-05-05 19:58 | 22.13253 | -85.74069 | 24419 ft | 437 kts | 236° |
| 2026-05-05 19:58 | 22.11426 | -85.76679 | 24083 ft | 435 kts | 236° |
| 2026-05-05 19:59 | 22.09627 | -85.79243 | 23749 ft | 433 kts | 236° |
| 2026-05-05 19:59 | 22.07816 | -85.81820 | 23335 ft | 431 kts | 236° |
| 2026-05-05 19:59 | 22.06010 | -85.84387 | 22903 ft | 429 kts | 236° |
| 2026-05-05 19:59 | 22.04209 | -85.86941 | 22472 ft | 427 kts | 236° |
| 2026-05-05 20:00 | 22.02415 | -85.89483 | 22051 ft | 425 kts | 236° |
| 2026-05-05 20:00 | 22.00631 | -85.92013 | 21632 ft | 423 kts | 236° |
| 2026-05-05 20:00 | 21.98854 | -85.94539 | 21380 ft | 423 kts | 236° |
| 2026-05-05 20:00 | 21.97075 | -85.97060 | 21132 ft | 422 kts | 234° |
| 2026-05-05 20:01 | 21.95045 | -85.99355 | 20884 ft | 425 kts | 224° |
| 2026-05-05 20:01 | 21.92822 | -86.01450 | 20657 ft | 425 kts | 224° |
| 2026-05-05 20:01 | 21.90596 | -86.03540 | 20420 ft | 424 kts | 224° |
| 2026-05-05 20:01 | 21.89127 | -86.04922 | 20261 ft | 423 kts | 224° |
| 2026-05-05 20:02 | 21.86914 | -86.07005 | 20032 ft | 423 kts | 224° |
| 2026-05-05 20:02 | 21.84702 | -86.09090 | 19794 ft | 422 kts | 224° |
| 2026-05-05 20:02 | 21.82493 | -86.11171 | 19558 ft | 421 kts | 224° |
| 2026-05-05 20:02 | 21.80290 | -86.13245 | 19334 ft | 420 kts | 224° |
| 2026-05-05 20:03 | 21.78092 | -86.15310 | 19107 ft | 420 kts | 224° |
| 2026-05-05 20:03 | 21.75892 | -86.17374 | 18882 ft | 419 kts | 224° |
| 2026-05-05 20:03 | 21.73698 | -86.19435 | 18662 ft | 418 kts | 224° |
| 2026-05-05 20:03 | 21.71512 | -86.21490 | 18444 ft | 417 kts | 224° |
| 2026-05-05 20:04 | 21.69328 | -86.23543 | 18212 ft | 417 kts | 223° |
| 2026-05-05 20:04 | 21.67147 | -86.25590 | 17995 ft | 415 kts | 223° |
| 2026-05-05 20:04 | 21.64973 | -86.27630 | 17984 ft | 414 kts | 223° |
| 2026-05-05 20:04 | 21.62797 | -86.29674 | 17848 ft | 415 kts | 223° |
| 2026-05-05 20:05 | 21.60625 | -86.31711 | 17460 ft | 412 kts | 223° |
| 2026-05-05 20:05 | 21.58475 | -86.33722 | 17071 ft | 409 kts | 223° |
| 2026-05-05 20:05 | 21.56336 | -86.35724 | 16679 ft | 406 kts | 223° |
| 2026-05-05 20:05 | 21.54238 | -86.37685 | 16301 ft | 402 kts | 223° |
| 2026-05-05 20:06 | 21.52062 | -86.39556 | 15942 ft | 401 kts | 216° |
| 2026-05-05 20:06 | 21.49752 | -86.41217 | 15582 ft | 398 kts | 215° |
| 2026-05-05 20:06 | 21.47456 | -86.42863 | 15236 ft | 395 kts | 215° |
| 2026-05-05 20:06 | 21.45176 | -86.44495 | 14892 ft | 393 kts | 215° |
| 2026-05-05 20:07 | 21.42908 | -86.46113 | 14550 ft | 390 kts | 215° |
| 2026-05-05 20:07 | 21.40653 | -86.47719 | 14207 ft | 387 kts | 215° |
| 2026-05-05 20:07 | 21.38419 | -86.49313 | 13879 ft | 384 kts | 215° |
| 2026-05-05 20:07 | 21.36200 | -86.50899 | 13529 ft | 381 kts | 215° |
| 2026-05-05 20:08 | 21.33996 | -86.52473 | 13271 ft | 380 kts | 215° |
| 2026-05-05 20:08 | 21.31801 | -86.54042 | 13020 ft | 378 kts | 215° |
| 2026-05-05 20:08 | 21.29621 | -86.55602 | 12771 ft | 374 kts | 215° |
| 2026-05-05 20:08 | 21.27490 | -86.57126 | 12520 ft | 362 kts | 215° |
| 2026-05-05 20:09 | 21.25419 | -86.58604 | 12276 ft | 352 kts | 215° |
| 2026-05-05 20:09 | 21.23436 | -86.60020 | 12037 ft | 342 kts | 215° |
| 2026-05-05 20:09 | 21.21477 | -86.61418 | 11792 ft | 334 kts | 215° |
| 2026-05-05 20:09 | 21.19566 | -86.62783 | 11552 ft | 326 kts | 215° |
| 2026-05-05 20:10 | 21.17698 | -86.64115 | 11318 ft | 319 kts | 215° |
| 2026-05-05 20:10 | 21.15874 | -86.65414 | 11080 ft | 312 kts | 215° |
| 2026-05-05 20:10 | 21.14083 | -86.66688 | 10847 ft | 305 kts | 215° |
| 2026-05-05 20:10 | 21.12332 | -86.67935 | 10617 ft | 299 kts | 215° |
| 2026-05-05 20:11 | 21.10614 | -86.69158 | 10384 ft | 294 kts | 215° |
| 2026-05-05 20:11 | 21.08931 | -86.70361 | 10155 ft | 288 kts | 217° |
| 2026-05-05 20:11 | 21.07611 | -86.71903 | 9922 ft | 279 kts | 247° |
| 2026-05-05 20:11 | 21.07304 | -86.73892 | 9678 ft | 271 kts | 280° |
| 2026-05-05 20:12 | 21.08031 | -86.75704 | 9428 ft | 266 kts | 303° |
| 2026-05-05 20:12 | 21.09058 | -86.77353 | 9176 ft | 266 kts | 304° |
| 2026-05-05 20:12 | 21.10109 | -86.78977 | 8865 ft | 265 kts | 304° |
| 2026-05-05 20:12 | 21.11161 | -86.80598 | 8539 ft | 265 kts | 304° |
| 2026-05-05 20:13 | 21.12205 | -86.82221 | 8213 ft | 264 kts | 304° |
| 2026-05-05 20:13 | 21.13243 | -86.83847 | 7892 ft | 264 kts | 304° |
| 2026-05-05 20:13 | 21.14271 | -86.85472 | 7581 ft | 264 kts | 304° |
| 2026-05-05 20:13 | 21.15294 | -86.87097 | 7258 ft | 263 kts | 304° |
| 2026-05-05 20:14 | 21.16316 | -86.88726 | 6960 ft | 263 kts | 304° |
| 2026-05-05 20:14 | 21.17333 | -86.90353 | 6657 ft | 263 kts | 303° |
| 2026-05-05 20:14 | 21.18346 | -86.91981 | 6348 ft | 262 kts | 303° |
| 2026-05-05 20:14 | 21.19358 | -86.93604 | 6012 ft | 262 kts | 303° |
| 2026-05-05 20:15 | 21.20368 | -86.95225 | 5704 ft | 261 kts | 303° |
| 2026-05-05 20:15 | 21.21374 | -86.96839 | 5396 ft | 260 kts | 303° |
| 2026-05-05 20:15 | 21.22370 | -86.98434 | 5181 ft | 252 kts | 303° |
| 2026-05-05 20:15 | 21.23318 | -86.99955 | 4934 ft | 245 kts | 303° |
| 2026-05-05 20:16 | 21.24249 | -87.01452 | 4689 ft | 238 kts | 302° |
| 2026-05-05 20:16 | 21.25159 | -87.02914 | 4437 ft | 235 kts | 302° |
| 2026-05-05 20:16 | 21.26063 | -87.04365 | 4187 ft | 232 kts | 302° |
| 2026-05-05 20:16 | 21.26951 | -87.05785 | 3942 ft | 227 kts | 302° |
| 2026-05-05 20:17 | 21.27825 | -87.07186 | 3698 ft | 225 kts | 302° |
| 2026-05-05 20:17 | 21.28544 | -87.08663 | 3452 ft | 223 kts | 278° |
| 2026-05-05 20:17 | 21.28408 | -87.10259 | 3218 ft | 214 kts | 241° |
| 2026-05-05 20:17 | 21.27466 | -87.11426 | 3033 ft | 207 kts | 208° |
| 2026-05-05 20:18 | 21.26230 | -87.12248 | 2969 ft | 211 kts | 209° |
| 2026-05-05 20:18 | 21.25001 | -87.13116 | 2975 ft | 213 kts | 210° |
| 2026-05-05 20:18 | 21.23755 | -87.13965 | 2979 ft | 210 kts | 201° |
| 2026-05-05 20:18 | 21.22361 | -87.14133 | 2981 ft | 201 kts | 163° |
| 2026-05-05 20:19 | 21.21215 | -87.13332 | 2994 ft | 200 kts | 126° |
| 2026-05-05 20:19 | 21.20432 | -87.12095 | 2985 ft | 201 kts | 124° |
| 2026-05-05 20:19 | 21.19649 | -87.10847 | 2981 ft | 202 kts | 123° |
| 2026-05-05 20:19 | 21.18878 | -87.09612 | 2984 ft | 202 kts | 124° |
| 2026-05-05 20:20 | 21.18086 | -87.08342 | 2987 ft | 202 kts | 124° |
| 2026-05-05 20:20 | 21.17315 | -87.07106 | 2989 ft | 202 kts | 124° |
| 2026-05-05 20:20 | 21.16534 | -87.05852 | 2991 ft | 202 kts | 124° |
| 2026-05-05 20:20 | 21.15756 | -87.04605 | 2990 ft | 201 kts | 123° |
| 2026-05-05 20:21 | 21.15002 | -87.03396 | 3012 ft | 192 kts | 123° |
| 2026-05-05 20:21 | 21.14270 | -87.02224 | 2948 ft | 182 kts | 123° |
| 2026-05-05 20:21 | 21.13603 | -87.01155 | 2777 ft | 165 kts | 123° |
| 2026-05-05 20:21 | 21.12983 | -87.00161 | 2610 ft | 158 kts | 123° |
| 2026-05-05 20:22 | 21.12382 | -86.99198 | 2414 ft | 153 kts | 122° |
| 2026-05-05 20:22 | 21.11807 | -86.98277 | 2226 ft | 147 kts | 123° |
| 2026-05-05 20:22 | 21.11240 | -86.97370 | 2035 ft | 146 kts | 123° |
| 2026-05-05 20:22 | 21.10675 | -86.96464 | 1851 ft | 146 kts | 123° |
| 2026-05-05 20:23 | 21.10120 | -86.95576 | 1662 ft | 141 kts | 123° |
| 2026-05-05 20:23 | 21.09579 | -86.94710 | 1485 ft | 139 kts | 123° |
| 2026-05-05 20:23 | 21.09043 | -86.93854 | 1318 ft | 138 kts | 123° |
| 2026-05-05 20:23 | 21.08514 | -86.93000 | 1126 ft | 138 kts | 123° |
| 2026-05-05 20:24 | 21.07983 | -86.92149 | 935 ft | 137 kts | 123° |
| 2026-05-05 20:24 | 21.07456 | -86.91301 | 750 ft | 136 kts | 123° |
| 2026-05-05 20:24 | 21.06928 | -86.90460 | 580 ft | 136 kts | 124° |
| 2026-05-05 20:24 | 21.06399 | -86.89616 | 394 ft | 136 kts | 124° |
| 2026-05-05 20:25 | 21.05871 | -86.88776 | 218 ft | 135 kts | 124° |
| 2026-05-05 20:25 | 21.05345 | -86.87936 | 47 ft | 135 kts | 123° |
| 2026-05-05 20:25 | 21.04883 | -86.87195 | 32 ft | 98 kts | 123° |
| 2026-05-05 20:25 | 21.04597 | -86.86738 | 32 ft | 61 kts | 123° |
| 2026-05-05 20:26 | 21.04464 | -86.86526 | 32 ft | 23 kts | 126° |
| 2026-05-05 20:26 | 21.04360 | -86.86427 | 30 ft | 19 kts | 146° |
| 2026-05-05 20:26 | 21.04252 | -86.86365 | 34 ft | 13 kts | 154° |
| 2026-05-05 20:26 | 21.04189 | -86.86351 | 38 ft | 8 kts | 200° |
| 2026-05-05 20:27 | 21.04175 | -86.86385 | 40 ft | 4 kts | 276° |
| 2026-05-05 20:27 | 21.04198 | -86.86430 | 37 ft | 10 kts | 303° |
| 2026-05-05 20:27 | 21.04244 | -86.86503 | 32 ft | 11 kts | 304° |
| 2026-05-05 20:27 | 21.04298 | -86.86590 | 32 ft | 17 kts | 303° |
| 2026-05-05 20:28 | 21.04371 | -86.86707 | 23 ft | 19 kts | 303° |
| 2026-05-05 20:28 | 21.04446 | -86.86828 | 23 ft | 20 kts | 303° |
| 2026-05-05 20:28 | 21.04519 | -86.86944 | 24 ft | 17 kts | 304° |
| 2026-05-05 20:28 | 21.04584 | -86.87047 | 24 ft | 17 kts | 304° |
| 2026-05-05 20:29 | 21.04645 | -86.87147 | 25 ft | 16 kts | 303° |
| 2026-05-05 20:29 | 21.04707 | -86.87245 | 26 ft | 16 kts | 304° |
| 2026-05-05 20:29 | 21.04772 | -86.87349 | 27 ft | 17 kts | 303° |
| 2026-05-05 20:29 | 21.04840 | -86.87456 | 26 ft | 18 kts | 304° |
| 2026-05-05 20:30 | 21.04911 | -86.87570 | 27 ft | 19 kts | 304° |
| 2026-05-05 20:30 | 21.04985 | -86.87687 | 28 ft | 19 kts | 304° |
| 2026-05-05 20:30 | 21.05061 | -86.87808 | 29 ft | 20 kts | 303° |
| 2026-05-05 20:30 | 21.05140 | -86.87933 | 30 ft | 21 kts | 303° |
| 2026-05-05 20:31 | 21.05200 | -86.88028 | 30 ft | 14 kts | 304° |
| 2026-05-05 20:31 | 21.05205 | -86.88099 | 30 ft | 10 kts | 227° |
| 2026-05-05 20:31 | 21.05139 | -86.88148 | 29 ft | 13 kts | 214° |
| 2026-05-05 20:31 | 21.05060 | -86.88204 | 29 ft | 14 kts | 213° |
| 2026-05-05 20:32 | 21.04975 | -86.88265 | 29 ft | 10 kts | 213° |
| 2026-05-05 20:32 | 21.04915 | -86.88307 | 29 ft | 11 kts | 213° |
| 2026-05-05 20:32 | 21.04855 | -86.88350 | 29 ft | 10 kts | 213° |
| 2026-05-05 20:32 | 21.04806 | -86.88384 | 29 ft | 5 kts | 213° |
| 2026-05-05 20:33 | 21.04777 | -86.88388 | 29 ft | 3 kts | 155° |
| 2026-05-05 20:33 | 21.04762 | -86.88364 | 29 ft | 4 kts | 120° |
| 2026-05-05 20:33 | 21.04750 | -86.88343 | 29 ft | 4 kts | 123° |
| 2026-05-05 20:33 | 21.04741 | -86.88328 | 29 ft | 2 kts | 123° |
| 2026-05-05 20:34 | 21.04737 | -86.88323 | 29 ft | 0 kts | 123° |
| 2026-05-05 20:34 | 21.04737 | -86.88322 | 29 ft | 0 kts | 123° |